Time;durP1;ratioP1;P1;durP2;ratioP2;P2;SDS_P1;SDS_P2;PMS_P1;PMS_P2;Temp;Humidity;BMP_temperature;BMP_pressure;BME280_temperature;BME280_humidity;BME280_pressure;Samples;Min_cycle;Max_cycle;Signal;HPM_P1;HPM_P2
2022/09/15 00:00:04;;;;;;;34.00;21.73;;;;;;;13.93;100.00;99990.09;4998593;28;20054;-79
2022/09/15 00:02:31;;;;;;;38.67;24.95;;;;;;;13.92;100.00;100003.44;4997979;28;20125;-79
2022/09/15 00:04:57;;;;;;;37.55;23.83;;;;;;;13.90;100.00;99990.47;4998891;28;20042;-79
2022/09/15 00:07:24;;;;;;;36.50;23.55;;;;;;;13.94;100.00;99994.34;4995589;28;20487;-78
2022/09/15 00:09:51;;;;;;;35.65;23.08;;;;;;;13.90;100.00;99997.56;4994336;28;20477;-78
2022/09/15 00:12:17;;;;;;;33.70;22.63;;;;;;;13.90;100.00;100006.25;4995426;28;20076;-78
2022/09/15 00:14:45;;;;;;;35.28;23.85;;;;;;;13.86;100.00;100004.19;4995889;28;20050;-78
2022/09/15 00:17:12;;;;;;;36.55;23.17;;;;;;;13.83;100.00;100002.78;4996408;28;20136;-78
2022/09/15 00:19:38;;;;;;;36.95;22.05;;;;;;;13.85;100.00;99997.31;4997158;28;20526;-79
2022/09/15 00:22:05;;;;;;;31.48;21.95;;;;;;;13.80;100.00;100004.97;4998282;28;20110;-79
2022/09/15 00:24:32;;;;;;;36.83;23.45;;;;;;;13.68;100.00;99999.44;4998279;28;20050;-79
2022/09/15 00:26:59;;;;;;;37.63;23.73;;;;;;;13.62;100.00;100000.22;4998416;28;20436;-79
2022/09/15 00:29:25;;;;;;;39.20;24.02;;;;;;;13.53;100.00;99993.47;4997771;28;20114;-79
2022/09/15 00:31:53;;;;;;;35.72;24.63;;;;;;;13.46;100.00;99989.97;4997231;28;20050;-80
2022/09/15 00:34:20;;;;;;;38.63;24.65;;;;;;;13.41;100.00;100001.03;4997244;28;20093;-79
2022/09/15 00:36:46;;;;;;;41.65;25.98;;;;;;;13.33;100.00;99998.53;4997415;28;20050;-79
2022/09/15 00:39:13;;;;;;;42.97;25.23;;;;;;;13.27;100.00;100007.19;4997003;28;20145;-79
2022/09/15 00:41:41;;;;;;;40.42;25.65;;;;;;;13.23;100.00;100009.38;4998101;28;20141;-79
2022/09/15 00:44:37;;;;;;;42.00;25.40;;;;;;;13.20;100.00;100015.03;4997735;28;20053;-78
2022/09/15 00:47:06;;;;;;;41.85;24.50;;;;;;;13.16;100.00;100016.41;4988923;28;20133;-78
2022/09/15 00:49:37;;;;;;;40.47;25.92;;;;;;;13.16;100.00;100020.84;4996594;28;20050;-78
2022/09/15 00:52:08;;;;;;;39.30;25.05;;;;;;;13.09;100.00;100026.00;4998160;28;20141;-79
2022/09/15 00:54:38;;;;;;;40.08;25.02;;;;;;;13.09;100.00;100023.38;4998265;28;20056;-78
2022/09/15 00:57:11;;;;;;;42.45;25.75;;;;;;;13.02;100.00;100026.91;4997443;28;20055;-80
2022/09/15 00:59:38;;;;;;;;;;;;;;;12.94;100.00;100031.28;4997959;28;20420;-79
2022/09/15 01:02:13;;;;;;;39.28;24.13;;;;;;;12.90;100.00;100029.22;4998037;28;19926;-78
2022/09/15 01:04:39;;;;;;;41.97;25.95;;;;;;;12.90;100.00;100027.41;4997201;28;20053;-80
2022/09/15 01:07:10;;;;;;;42.58;25.70;;;;;;;12.86;100.00;100026.16;4997548;28;20137;-81
2022/09/15 01:09:41;;;;;;;44.35;26.35;;;;;;;12.83;100.00;100034.38;4997460;28;20077;-80
2022/09/15 01:12:08;;;;;;;39.78;25.77;;;;;;;12.82;100.00;100032.75;4998437;28;20138;-79
2022/09/15 01:14:35;;;;;;;49.83;26.38;;;;;;;12.83;100.00;100028.31;4998116;28;20841;-80
2022/09/15 01:17:05;;;;;;;38.97;25.48;;;;;;;12.77;100.00;100029.88;4997905;28;20054;-79
2022/09/15 01:20:29;;;;;;;42.03;24.42;;;;;;;12.72;100.00;100029.63;4997328;28;20464;-79
2022/09/15 01:23:12;;;;;;;44.33;25.67;;;;;;;12.74;100.00;100034.72;4918319;29;20107;-78
2022/09/15 01:26:05;;;;;;;41.85;24.55;;;;;;;12.76;100.00;100020.38;4981410;28;20054;-78
2022/09/15 01:28:49;;;;;;;42.85;25.05;;;;;;;12.85;100.00;100021.88;4996200;28;20054;-79
2022/09/15 01:31:23;;;;;;;44.10;25.48;;;;;;;12.90;100.00;100027.41;4997549;28;20065;-79
2022/09/15 01:33:56;;;;;;;53.38;26.27;;;;;;;12.98;100.00;100026.47;4998608;28;20487;-79
2022/09/15 01:36:28;;;;;;;40.60;25.92;;;;;;;13.02;100.00;100025.09;4996712;28;20149;-79
2022/09/15 01:39:00;;;;;;;43.38;25.75;;;;;;;13.13;100.00;100026.44;4994647;28;20081;-78
2022/09/15 01:41:31;;;;;;;41.20;25.60;;;;;;;13.15;100.00;100016.56;4996279;28;20050;-80
2022/09/15 01:44:04;;;;;;;44.08;25.95;;;;;;;13.13;100.00;100023.81;4996841;28;20139;-81
2022/09/15 01:46:36;;;;;;;40.13;24.83;;;;;;;13.12;100.00;100020.38;4996541;28;20133;-79
2022/09/15 01:49:05;;;;;;;36.67;22.53;;;;;;;13.21;100.00;100021.91;4997170;28;20057;-79
2022/09/15 01:51:33;;;;;;;40.22;23.65;;;;;;;13.24;100.00;100020.69;4996850;28;20293;-81
2022/09/15 01:54:02;;;;;;;38.33;23.77;;;;;;;13.28;100.00;100017.50;4998593;28;20138;-81
2022/09/15 01:56:29;;;;;;;35.83;22.45;;;;;;;13.24;100.00;100004.94;4996845;28;20046;-81
2022/09/15 01:58:56;;;;;;;36.30;22.33;;;;;;;13.25;100.00;100006.56;4997241;28;20090;-80
2022/09/15 02:01:30;;;;;;;35.70;22.75;;;;;;;13.22;100.00;99999.06;4997276;28;20115;-81
2022/09/15 02:04:03;;;;;;;38.10;21.83;;;;;;;13.26;100.00;99989.78;4997692;28;20553;-81
2022/09/15 02:06:36;;;;;;;38.75;23.52;;;;;;;13.23;100.00;99995.44;4997117;28;20236;-81
2022/09/15 02:09:11;;;;;;;35.15;23.23;;;;;;;13.20;100.00;100006.34;4996459;28;20074;-81
2022/09/15 02:11:47;;;;;;;38.28;23.23;;;;;;;13.21;100.00;100006.16;4996588;28;20457;-81
2022/09/15 02:14:20;;;;;;;35.25;21.52;;;;;;;13.20;100.00;100009.78;4996222;28;20113;-81
2022/09/15 02:16:50;;;;;;;35.15;20.65;;;;;;;13.25;100.00;99996.84;4995375;28;20050;-81
2022/09/15 02:19:30;;;;;;;39.72;22.88;;;;;;;13.22;100.00;99996.44;4995873;28;20054;-80
2022/09/15 02:22:01;;;;;;;39.05;22.38;;;;;;;13.21;100.00;100000.88;4996913;28;20058;-80
2022/09/15 02:24:32;;;;;;;41.70;22.38;;;;;;;13.08;100.00;99995.47;4996240;28;20042;-80
2022/09/15 02:27:00;;;;;;;34.72;22.58;;;;;;;13.12;100.00;100001.16;4996212;28;20493;-80
2022/09/15 02:29:29;;;;;;;39.05;21.77;;;;;;;13.02;100.00;100003.28;4996122;28;20126;-80
2022/09/15 02:32:01;;;;;;;40.75;23.27;;;;;;;13.02;100.00;100008.53;4995834;28;20112;-81
2022/09/15 02:34:34;;;;;;;44.15;23.63;;;;;;;12.99;100.00;100006.28;4996153;28;20047;-80
2022/09/15 02:37:03;;;;;;;36.20;22.65;;;;;;;12.86;100.00;100004.31;4996662;28;20089;-80
2022/09/15 02:39:35;;;;;;;41.25;23.50;;;;;;;12.89;100.00;100009.22;4995685;28;20062;-79
2022/09/15 02:42:02;;;;;;;38.95;23.60;;;;;;;12.79;100.00;100003.44;4996737;28;20080;-80
2022/09/15 02:44:30;;;;;;;40.15;23.40;;;;;;;12.76;100.00;100012.50;4998357;28;20130;-78
2022/09/15 02:46:57;;;;;;;40.50;24.55;;;;;;;12.67;100.00;100011.00;4997013;28;20065;-79
2022/09/15 02:49:23;;;;;;;43.80;24.80;;;;;;;12.61;100.00;100006.47;4997097;28;20061;-79
2022/09/15 02:51:51;;;;;;;42.70;24.92;;;;;;;12.54;100.00;100013.47;4996535;28;20425;-78
2022/09/15 02:54:18;;;;;;;38.53;23.95;;;;;;;12.55;100.00;100009.84;4996328;28;20053;-78
2022/09/15 02:56:45;;;;;;;37.88;22.65;;;;;;;12.56;100.00;100019.34;4996144;28;20050;-79
2022/09/15 02:59:11;;;;;;;43.03;23.80;;;;;;;12.54;100.00;100013.47;4996169;28;20047;-80
2022/09/15 03:01:39;;;;;;;38.00;22.88;;;;;;;12.43;100.00;100021.78;4996920;28;20060;-80
2022/09/15 03:04:06;;;;;;;39.00;23.38;;;;;;;12.35;100.00;100017.47;4997188;28;20498;-81
2022/09/15 03:06:34;;;;;;;40.17;24.05;;;;;;;12.34;100.00;100022.88;4996427;28;20090;-79
2022/09/15 03:09:05;;;;;;;40.00;24.45;;;;;;;12.30;100.00;100025.88;4996381;28;20068;-81
2022/09/15 03:11:33;;;;;;;46.42;25.38;;;;;;;12.22;100.00;100031.22;4996444;28;20082;-80
2022/09/15 03:14:01;;;;;;;45.17;23.33;;;;;;;12.29;100.00;100020.81;4996102;28;20054;-81
2022/09/15 03:16:29;;;;;;;48.17;25.67;;;;;;;12.19;100.00;100031.59;4995471;28;20078;-80
2022/09/15 03:18:58;;;;;;;44.13;24.52;;;;;;;12.16;100.00;100016.22;4996454;28;20078;-81
2022/09/15 03:21:26;;;;;;;46.10;24.75;;;;;;;12.12;100.00;100022.81;4997724;28;20050;-81
2022/09/15 03:23:52;;;;;;;48.08;25.52;;;;;;;12.10;100.00;100026.63;4997667;28;20080;-80
2022/09/15 03:26:20;;;;;;;46.60;25.58;;;;;;;12.09;100.00;100023.19;4997245;28;20131;-80
2022/09/15 03:28:47;;;;;;;50.20;26.45;;;;;;;12.05;100.00;100021.91;5000653;28;20081;-81
2022/09/15 03:31:13;;;;;;;50.92;27.65;;;;;;;12.02;100.00;100019.63;5002015;28;20107;-81
2022/09/15 03:33:40;;;;;;;50.40;27.48;;;;;;;12.01;100.00;100020.63;5000305;28;20105;-81
2022/09/15 03:36:07;;;;;;;52.50;28.25;;;;;;;11.97;100.00;100014.13;4999915;28;20088;-79
2022/09/15 03:38:34;;;;;;;56.97;29.35;;;;;;;12.00;100.00;100021.63;4999005;28;20093;-79
2022/09/15 03:41:03;;;;;;;58.50;30.88;;;;;;;11.99;100.00;100022.63;4998447;28;20046;-79
2022/09/15 03:43:32;;;;;;;57.42;29.35;;;;;;;11.99;100.00;100020.00;4999655;28;20137;-80
2022/09/15 03:45:59;;;;;;;56.15;30.52;;;;;;;11.98;100.00;100025.41;4999439;28;20125;-79
2022/09/15 03:48:28;;;;;;;55.65;31.17;;;;;;;12.02;100.00;100024.06;4998614;28;20054;-80
2022/09/15 03:50:54;;;;;;;62.58;33.33;;;;;;;12.09;100.00;100025.78;4997658;28;20429;-79
2022/09/15 03:53:22;;;;;;;64.40;32.92;;;;;;;12.03;100.00;100030.94;4998369;28;20074;-79
2022/09/15 03:55:48;;;;;;;66.05;34.30;;;;;;;12.03;100.00;100017.84;4999722;28;20092;-79
2022/09/15 03:58:16;;;;;;;66.15;34.60;;;;;;;12.01;100.00;100011.97;4999110;28;20046;-79
2022/09/15 04:00:44;;;;;;;64.18;35.30;;;;;;;11.98;100.00;100017.56;5000192;28;20110;-80
2022/09/15 04:03:12;;;;;;;63.85;34.80;;;;;;;11.94;100.00;100014.47;5000376;28;20074;-79
2022/09/15 04:08:11;;;;;;;66.90;36.13;;;;;;;11.99;100.00;100025.25;4982289;28;20055;-79
2022/09/15 04:10:46;;;;;;;64.35;35.75;;;;;;;11.82;100.00;100002.78;4980829;28;20062;-79
2022/09/15 04:13:13;;;;;;;70.00;36.10;;;;;;;11.78;100.00;99997.13;4982524;28;20234;-80
2022/09/15 04:15:40;;;;;;;63.00;34.58;;;;;;;11.85;100.00;99997.19;4981763;28;20454;-79
2022/09/15 04:18:09;;;;;;;67.35;35.25;;;;;;;11.83;100.00;100004.44;4983009;28;20411;-80
2022/09/15 04:20:38;;;;;;;59.45;35.03;;;;;;;11.84;100.00;100006.06;4984296;28;20055;-79
2022/09/15 04:23:11;;;;;;;64.55;34.10;;;;;;;11.81;100.00;100003.81;4983943;28;20093;-79
2022/09/15 04:25:38;;;;;;;65.30;34.22;;;;;;;11.92;100.00;100008.59;4981486;28;20047;-79
2022/09/15 04:28:05;;;;;;;62.10;31.92;;;;;;;11.93;100.00;100011.03;4983459;28;20158;-79
2022/09/15 04:30:31;;;;;;;60.90;32.88;;;;;;;12.03;100.00;100025.69;4975404;28;20091;-79
2022/09/15 04:32:58;;;;;;;62.50;31.23;;;;;;;12.08;100.00;100024.16;4957123;28;20059;-78
2022/09/15 04:35:27;;;;;;;53.42;31.92;;;;;;;12.17;100.00;100035.38;4956070;28;20047;-78
2022/09/15 04:37:54;;;;;;;54.85;31.17;;;;;;;12.16;100.00;100031.94;4957639;28;20083;-77
2022/09/15 04:40:26;;;;;;;54.78;30.45;;;;;;;12.22;100.00;100025.19;4962814;28;20106;-79
2022/09/15 04:42:53;;;;;;;54.78;30.77;;;;;;;12.27;100.00;100026.25;4961090;28;20143;-78
2022/09/15 04:45:20;;;;;;;61.22;31.35;;;;;;;12.23;100.00;100019.75;4960892;28;20058;-78
2022/09/15 04:47:47;;;;;;;57.42;30.88;;;;;;;12.27;100.00;100023.63;4961594;28;20058;-77
2022/09/15 04:50:14;;;;;;;64.95;31.50;;;;;;;12.30;100.00;100019.81;4958089;28;20051;-78
2022/09/15 04:52:44;;;;;;;52.67;30.55;;;;;;;12.31;100.00;100016.19;4955845;28;20150;-79
2022/09/15 04:55:11;;;;;;;59.03;31.70;;;;;;;12.33;100.00;100010.75;4961916;28;20082;-79
2022/09/15 04:57:37;;;;;;;54.85;29.67;;;;;;;12.38;100.00;100024.97;4963501;28;20051;-78
2022/09/15 05:00:06;;;;;;;51.17;29.00;;;;;;;12.45;100.00;100038.19;4959156;28;20594;-77
2022/09/15 05:02:33;;;;;;;54.40;30.33;;;;;;;12.51;100.00;100030.38;4959702;28;20078;-79
2022/09/15 05:04:59;;;;;;;53.38;27.55;;;;;;;12.54;100.00;100039.72;4959403;28;20044;-78
2022/09/15 05:07:26;;;;;;;47.20;29.40;;;;;;;12.55;100.00;100044.78;4958406;28;20235;-78
2022/09/15 05:09:54;;;;;;;52.78;29.42;;;;;;;12.64;100.00;100042.88;4957749;28;20109;-79
2022/09/15 05:12:20;;;;;;;46.25;26.83;;;;;;;12.66;100.00;100042.69;4960753;28;20134;-79
2022/09/15 05:14:47;;;;;;;51.65;26.80;;;;;;;12.66;100.00;100040.06;4958347;28;20126;-78
2022/09/15 05:17:14;;;;;;;42.10;24.25;;;;;;;12.66;100.00;100040.88;4957525;28;20051;-79
2022/09/15 05:19:40;;;;;;;43.53;25.42;;;;;;;12.72;100.00;100049.81;4958024;28;20137;-80
2022/09/15 05:22:07;;;;;;;44.95;25.70;;;;;;;12.74;100.00;100043.41;4959502;28;20082;-79
2022/09/15 05:24:36;;;;;;;41.30;25.08;;;;;;;12.73;100.00;100044.41;4959616;28;20051;-79
2022/09/15 05:27:05;;;;;;;41.88;23.73;;;;;;;12.84;100.00;100057.03;4958556;28;20051;-79
2022/09/15 05:29:31;;;;;;;44.08;24.58;;;;;;;12.88;100.00;100052.22;4956393;28;20095;-78
2022/09/15 05:31:58;;;;;;;40.95;23.75;;;;;;;12.90;100.00;100047.59;4956607;28;20061;-79
2022/09/15 05:34:24;;;;;;;40.85;23.60;;;;;;;12.90;100.00;100048.41;4956768;28;20061;-78
2022/09/15 05:36:51;;;;;;;39.17;23.65;;;;;;;12.92;100.00;100054.28;4956792;28;20142;-79
2022/09/15 05:39:18;;;;;;;44.60;24.05;;;;;;;12.96;100.00;100044.22;4956813;28;20075;-79
2022/09/15 05:41:44;;;;;;;40.70;23.08;;;;;;;12.95;100.00;100061.00;4955327;28;20494;-78
2022/09/15 05:44:12;;;;;;;44.10;23.90;;;;;;;13.01;100.00;100056.81;4955168;28;20063;-79
2022/09/15 05:46:39;;;;;;;43.17;23.40;;;;;;;13.06;100.00;100051.81;4953769;28;20133;-78
2022/09/15 05:49:07;;;;;;;41.03;23.02;;;;;;;13.11;100.00;100054.69;4955481;28;20055;-79
2022/09/15 05:51:34;;;;;;;40.85;23.70;;;;;;;13.17;100.00;100069.75;4958664;28;20117;-78
2022/09/15 05:54:00;;;;;;;39.05;24.10;;;;;;;13.20;100.00;100066.75;4958550;28;20051;-78
2022/09/15 05:56:27;;;;;;;39.97;22.92;;;;;;;13.25;100.00;100059.09;4958617;28;20374;-78
2022/09/15 05:58:54;;;;;;;34.30;21.98;;;;;;;13.31;100.00;100063.59;4961122;28;20115;-79
2022/09/15 06:01:23;;;;;;;36.90;23.33;;;;;;;13.25;100.00;100064.34;4959656;28;20051;-79
2022/09/15 06:03:51;;;;;;;37.30;22.77;;;;;;;13.24;100.00;100057.47;4959772;28;20134;-79
2022/09/15 06:06:17;;;;;;;38.60;21.73;;;;;;;13.41;100.00;100069.38;4958704;28;20130;-78
2022/09/15 06:08:47;;;;;;;35.38;20.80;;;;;;;13.36;100.00;100071.75;4959385;28;20158;-78
2022/09/15 06:11:16;;;;;;;32.00;21.40;;;;;;;13.39;100.00;100076.63;4960472;28;20059;-80
2022/09/15 06:13:44;;;;;;;35.22;21.30;;;;;;;13.53;100.00;100083.66;4961584;28;20561;-81
2022/09/15 06:16:12;;;;;;;40.95;21.65;;;;;;;13.66;100.00;100084.78;4961351;28;20042;-80
2022/09/15 06:18:41;;;;;;;34.38;20.75;;;;;;;13.70;100.00;100083.41;4950853;29;20059;-79
2022/09/15 06:21:09;;;;;;;31.23;20.13;;;;;;;13.80;100.00;100089.94;4950624;29;20056;-80
2022/09/15 06:23:37;;;;;;;44.50;29.65;;;;;;;13.87;100.00;100085.53;4950434;28;20184;-79
2022/09/15 06:26:08;;;;;;;32.75;20.33;;;;;;;13.89;100.00;100082.72;4949317;29;20489;-79
2022/09/15 06:28:35;;;;;;;33.67;21.38;;;;;;;13.92;100.00;100087.59;4942050;28;20115;-79
2022/09/15 06:31:02;;;;;;;31.48;20.48;;;;;;;14.19;100.00;100091.22;4948361;29;20111;-80
2022/09/15 06:33:28;;;;;;;30.65;20.67;;;;;;;14.32;100.00;100098.41;4953580;28;20492;-80
2022/09/15 06:35:56;;;;;;;32.85;20.35;;;;;;;14.54;100.00;100084.19;4961235;29;20063;-80
2022/09/15 06:38:23;;;;;;;35.67;19.88;;;;;;;14.57;100.00;100094.34;4952601;29;20070;-80
2022/09/15 06:40:56;;;;;;;31.95;20.08;;;;;;;14.60;100.00;100094.75;4954946;28;20047;-79
2022/09/15 06:43:24;;;;;;;31.67;19.58;;;;;;;14.58;100.00;100095.97;4953141;28;20083;-78
2022/09/15 06:45:51;;;;;;;31.65;19.42;;;;;;;14.72;100.00;100095.00;4956583;28;20126;-79
2022/09/15 06:48:18;;;;;;;29.88;19.00;;;;;;;14.96;100.00;100095.50;4952291;28;20052;-79
2022/09/15 06:50:45;;;;;;;28.08;19.02;;;;;;;14.90;100.00;100097.09;4938309;29;20106;-78
2022/09/15 06:53:13;;;;;;;27.73;18.90;;;;;;;15.04;100.00;100096.16;4944209;29;20530;-79
2022/09/15 06:55:40;;;;;;;32.53;19.30;;;;;;;15.13;100.00;100107.31;4938928;29;20130;-79
2022/09/15 06:58:06;;;;;;;30.80;18.65;;;;;;;15.23;100.00;100107.75;4955758;29;20079;-80
2022/09/15 07:00:33;;;;;;;24.20;18.48;;;;;;;15.25;100.00;100106.53;4957939;28;20090;-79
2022/09/15 07:03:00;;;;;;;30.05;18.60;;;;;;;15.22;100.00;100114.03;4964655;28;20062;-80
2022/09/15 07:05:27;;;;;;;32.40;17.77;;;;;;;15.13;100.00;100107.31;4961209;28;20047;-79
2022/09/15 07:07:53;;;;;;;28.85;18.58;;;;;;;15.19;100.00;100106.50;4963368;28;20059;-80
2022/09/15 07:10:21;;;;;;;25.00;17.92;;;;;;;15.27;100.00;100117.69;4963003;28;20079;-79
2022/09/15 07:12:48;;;;;;;28.63;18.27;;;;;;;15.34;100.00;100116.91;4962743;28;20078;-80
2022/09/15 07:15:15;;;;;;;29.20;18.70;;;;;;;15.35;100.00;100115.88;4962424;28;20086;-82
2022/09/15 07:17:41;;;;;;;25.30;18.48;;;;;;;15.39;100.00;100122.38;4965362;28;20058;-82
2022/09/15 07:20:09;;;;;;;32.65;18.88;;;;;;;15.36;100.00;100120.97;4964168;28;20597;-81
2022/09/15 07:22:36;;;;;;;27.58;18.67;;;;;;;15.11;100.00;100119.88;4965065;28;20054;-81
2022/09/15 07:25:02;;;;;;;27.90;18.58;;;;;;;15.15;100.00;100116.63;4964814;28;20055;-80
2022/09/15 07:27:30;;;;;;;33.22;18.83;;;;;;;15.05;100.00;100123.31;4964658;28;20153;-79
2022/09/15 07:29:57;;;;;;;28.80;19.27;;;;;;;14.94;100.00;100120.22;4965391;28;20061;-79
2022/09/15 07:32:24;;;;;;;33.15;18.90;;;;;;;15.11;100.00;100130.44;4963782;28;20127;-79
2022/09/15 07:34:51;;;;;;;29.98;18.70;;;;;;;15.23;100.00;100128.81;4960894;28;20057;-78
2022/09/15 07:37:18;;;;;;;30.58;18.95;;;;;;;15.25;100.00;100126.81;4961867;28;20047;-80
2022/09/15 07:39:45;;;;;;;26.63;17.77;;;;;;;15.45;100.00;100117.13;4961990;28;20138;-79
2022/09/15 07:42:12;;;;;;;27.13;18.48;;;;;;;15.55;100.00;100122.84;4962074;28;20055;-79
2022/09/15 07:44:40;;;;;;;26.80;18.33;;;;;;;15.58;100.00;100129.56;4961174;28;20051;-79
2022/09/15 07:47:06;;;;;;;28.98;19.10;;;;;;;15.52;100.00;100125.88;4961330;28;20134;-79
2022/09/15 07:49:33;;;;;;;28.98;17.80;;;;;;;15.42;100.00;100124.63;4961620;28;20134;-79
2022/09/15 07:51:59;;;;;;;29.58;18.42;;;;;;;15.47;100.00;100128.28;4961897;28;20115;-79
2022/09/15 07:54:26;;;;;;;28.27;16.58;;;;;;;15.40;100.00;100134.56;4963901;28;20094;-80
2022/09/15 07:56:53;;;;;;;22.52;16.50;;;;;;;15.34;100.00;100141.44;4960998;28;20051;-80
2022/09/15 07:59:19;;;;;;;24.80;16.58;;;;;;;15.27;100.00;100140.59;4963637;28;20107;-80
2022/09/15 08:01:47;;;;;;;27.50;16.92;;;;;;;15.34;100.00;100140.63;4962057;28;20478;-78
2022/09/15 08:04:14;;;;;;;20.20;14.57;;;;;;;15.44;100.00;100141.88;4963916;28;20510;-79
2022/09/15 08:06:40;;;;;;;23.80;15.50;;;;;;;15.63;100.00;100128.94;4961651;28;20086;-80
2022/09/15 08:09:07;;;;;;;25.15;16.05;;;;;;;15.88;100.00;100143.19;4960600;28;20557;-79
2022/09/15 08:11:34;;;;;;;27.02;17.42;;;;;;;15.98;100.00;100156.78;4959207;28;20060;-78
2022/09/15 08:14:01;;;;;;;29.38;18.23;;;;;;;15.81;100.00;100152.91;4957639;28;20480;-78
2022/09/15 08:16:28;;;;;;;28.65;15.90;;;;;;;16.12;100.00;100166.31;4958978;28;20055;-79
2022/09/15 08:18:56;;;;;;;26.63;16.30;;;;;;;16.26;99.86;100167.13;4957741;28;20059;-76
2022/09/15 08:21:23;;;;;;;26.95;15.30;;;;;;;16.59;98.76;100167.06;4957633;28;20050;-76
2022/09/15 08:23:51;;;;;;;21.95;15.30;;;;;;;16.56;98.51;100188.63;4960669;28;20138;-76
2022/09/15 08:26:18;;;;;;;19.92;14.98;;;;;;;16.50;98.61;100174.44;4968437;28;20062;-76
2022/09/15 08:28:45;;;;;;;26.40;15.88;;;;;;;16.65;98.31;100176.03;4967576;28;20486;-76
2022/09/15 08:31:13;;;;;;;22.63;15.20;;;;;;;16.62;97.49;100187.78;4967699;28;20081;-76
2022/09/15 08:33:39;;;;;;;19.08;14.80;;;;;;;16.76;95.86;100185.97;4958106;28;20082;-77
2022/09/15 08:36:10;;;;;;;26.67;15.10;;;;;;;16.81;96.18;100189.63;4955631;28;20047;-78
2022/09/15 08:38:38;;;;;;;19.75;14.25;;;;;;;17.22;94.35;100183.19;4954278;28;20506;-77
2022/09/15 08:41:09;;;;;;;20.23;13.70;;;;;;;17.54;94.11;100184.03;4955247;28;20138;-77
2022/09/15 08:43:40;;;;;;;21.50;14.10;;;;;;;17.52;94.08;100191.34;4940020;28;20135;-77
2022/09/15 08:46:12;;;;;;;20.63;11.73;;;;;;;17.09;93.04;100189.31;4935550;29;20048;-78
2022/09/15 08:48:43;;;;;;;19.25;11.90;;;;;;;17.25;92.43;100199.44;4935667;29;20047;-77
2022/09/15 08:51:19;;;;;;;17.50;11.38;;;;;;;17.10;92.13;100196.22;4936440;29;20062;-77
2022/09/15 08:53:52;;;;;;;21.83;13.02;;;;;;;17.23;91.62;100201.47;4936073;29;20139;-78
2022/09/15 08:56:19;;;;;;;23.60;13.15;;;;;;;17.61;90.86;100213.09;4936417;29;20044;-79
2022/09/15 08:58:46;;;;;;;21.73;12.77;;;;;;;17.88;90.10;100198.72;4935335;29;20099;-78
2022/09/15 09:01:27;;;;;;;16.02;10.90;;;;;;;18.26;86.50;100200.47;4942051;29;20058;-76
2022/09/15 09:04:22;;;;;;;14.88;10.45;;;;;;;19.13;85.57;100207.38;4939624;29;20043;-76
2022/09/15 09:07:03;;;;;;;19.88;11.02;;;;;;;19.29;82.47;100209.41;4946533;28;20421;-77
2022/09/15 09:09:40;;;;;;;17.38;10.77;;;;;;;18.93;83.77;100204.13;4953236;28;20138;-78
2022/09/15 09:12:20;;;;;;;23.77;11.45;;;;;;;18.67;84.98;100213.16;4954297;28;20054;-77
2022/09/15 09:15:03;;;;;;;18.95;9.63;;;;;;;18.60;85.17;100202.63;4940938;29;20578;-78
2022/09/15 09:17:48;;;;;;;15.90;10.50;;;;;;;18.31;84.26;100204.09;4956819;29;20048;-78
2022/09/15 09:20:28;;;;;;;12.52;9.65;;;;;;;18.36;85.63;100206.91;4954363;28;20146;-78
2022/09/15 09:22:59;;;;;;;16.23;9.48;;;;;;;18.44;84.29;100219.03;4954981;28;20105;-78
2022/09/15 09:25:25;;;;;;;13.43;8.75;;;;;;;18.70;82.63;100213.53;4954508;28;20478;-77
2022/09/15 09:27:53;;;;;;;14.32;8.98;;;;;;;18.80;82.57;100219.16;4954412;28;20398;-78
2022/09/15 09:30:22;;;;;;;12.32;7.80;;;;;;;19.10;80.97;100221.06;4954496;28;20074;-78
2022/09/15 09:32:55;;;;;;;12.95;9.05;;;;;;;18.83;79.87;100218.72;4956061;28;20141;-78
2022/09/15 09:35:32;;;;;;;13.18;8.75;;;;;;;19.01;81.17;100220.53;4955107;28;20557;-78
2022/09/15 09:38:01;;;;;;;15.52;8.40;;;;;;;18.90;79.70;100227.38;4954155;28;20134;-77
2022/09/15 09:40:30;;;;;;;14.73;9.25;;;;;;;18.88;82.35;100226.81;4954843;28;20106;-78
2022/09/15 09:42:57;;;;;;;14.60;7.50;;;;;;;18.77;80.95;100230.19;4954705;28;20087;-78
2022/09/15 09:45:23;;;;;;;11.02;7.15;;;;;;;18.79;81.32;100208.75;4955558;28;20055;-78
2022/09/15 09:47:50;;;;;;;13.32;6.57;;;;;;;18.83;81.62;100207.31;4953781;28;20134;-76
2022/09/15 09:50:38;;;;;;;13.43;7.15;;;;;;;18.61;80.13;100209.53;4954460;28;20137;-79
2022/09/15 09:53:29;;;;;;;16.95;8.25;;;;;;;18.44;82.03;100216.38;4953848;28;20051;-78
2022/09/15 09:56:17;;;;;;;15.00;8.80;;;;;;;18.26;83.26;100214.53;4952256;28;20055;-78
2022/09/15 09:58:45;;;;;;;11.98;7.07;;;;;;;18.35;82.08;100210.56;4953832;28;20051;-79
2022/09/15 10:01:13;;;;;;;9.75;6.57;;;;;;;18.56;82.44;100201.41;4953855;28;20098;-78
2022/09/15 10:03:42;;;;;;;10.07;6.60;;;;;;;18.75;81.38;100215.53;4954213;29;20055;-78
2022/09/15 10:09:04;;;;;;;10.35;7.10;;;;;;;18.30;80.90;100204.31;4977985;28;20051;-82
2022/09/15 10:12:19;;;;;;;15.45;7.85;;;;;;;18.41;81.97;100208.91;4979309;28;20093;-82
2022/09/15 10:14:55;;;;;;;13.52;6.05;;;;;;;18.45;80.55;100194.16;4933308;28;20110;-82
2022/09/15 10:17:52;;;;;;;14.23;7.97;;;;;;;18.31;81.81;100190.03;5055153;23;20046;-83
2022/09/15 10:20:41;;;;;;;16.27;9.50;;;;;;;18.17;82.80;100192.78;4999534;28;20051;-83
2022/09/15 10:23:33;;;;;;;14.80;9.18;;;;;;;18.35;84.76;100199.97;4997906;28;20089;-83
2022/09/15 10:26:43;;;;;;;14.65;7.93;;;;;;;18.31;82.34;100174.16;4999731;28;20074;-82
2022/09/15 10:29:22;;;;;;;13.32;8.20;;;;;;;18.31;83.20;100204.09;4979412;28;20051;-82
2022/09/15 10:34:36;;;;;;;15.10;9.02;;;;;;;18.10;82.81;100197.31;4979537;28;20648;-81
2022/09/15 10:37:13;;;;;;;15.80;9.10;;;;;;;18.09;84.23;100185.09;4978158;28;20101;-81
2022/09/15 10:40:30;;;;;;;10.68;7.57;;;;;;;18.29;82.76;100203.50;4978426;28;20069;-82
2022/09/15 10:43:17;;;;;;;13.15;6.65;;;;;;;18.31;81.08;100198.78;4957411;28;20051;-82
2022/09/15 10:45:48;;;;;;;8.90;5.70;;;;;;;18.20;79.94;100181.75;4978457;28;20046;-83
2022/09/15 10:48:56;;;;;;;11.93;5.10;;;;;;;18.35;78.48;100178.78;4979444;28;20138;-81
2022/09/15 10:51:59;;;;;;;11.27;7.00;;;;;;;18.40;79.78;100188.75;4980623;28;20051;-82
2022/09/15 10:55:04;;;;;;;11.55;7.00;;;;;;;18.56;79.39;100198.75;4979575;28;20533;-82
2022/09/15 10:58:02;;;;;;;11.65;7.13;;;;;;;18.76;79.40;100202.06;4975772;28;20084;-82
2022/09/15 11:00:44;;;;;;;12.82;6.15;;;;;;;18.78;80.24;100205.31;4978915;28;20059;-82
2022/09/15 11:03:37;;;;;;;9.95;6.32;;;;;;;18.93;78.68;100201.47;4978371;28;20257;-81
2022/09/15 11:06:30;;;;;;;12.43;6.97;;;;;;;19.05;79.00;100181.94;4979142;28;20065;-80
2022/09/15 11:09:23;;;;;;;12.30;5.97;;;;;;;18.82;78.10;100200.38;4977902;28;20051;-81
2022/09/15 11:12:21;;;;;;;9.38;6.50;;;;;;;18.90;78.34;100205.41;4978338;28;20070;-82
2022/09/15 11:15:09;;;;;;;12.15;5.53;;;;;;;18.86;77.59;100191.78;4978513;28;20062;-80
2022/09/15 11:18:02;;;;;;;11.85;5.38;;;;;;;18.57;78.46;100195.88;4979113;28;20051;-81
2022/09/15 11:20:54;;;;;;;10.88;5.78;;;;;;;18.49;78.23;100184.75;4978861;28;20074;-82
2022/09/15 11:23:46;;;;;;;14.95;7.50;;;;;;;18.70;78.45;100187.03;4979516;28;20055;-81
2022/09/15 11:26:22;;;;;;;12.30;7.05;;;;;;;18.78;78.30;100194.69;4979208;28;20050;-81
2022/09/15 11:29:23;;;;;;;11.20;6.60;;;;;;;18.91;77.42;100188.44;4978436;28;20062;-82
2022/09/15 11:32:06;;;;;;;10.60;6.32;;;;;;;19.04;75.57;100200.72;4977302;28;20058;-80
2022/09/15 11:34:41;;;;;;;;;;;;;;;19.17;76.60;100208.53;4978045;28;20046;-80